Time;durP1;ratioP1;P1;durP2;ratioP2;P2;SDS_P1;SDS_P2;PMS_P1;PMS_P2;Temp;Humidity;BMP_temperature;BMP_pressure;BME280_temperature;BME280_humidity;BME280_pressure;Samples;Min_cycle;Max_cycle;Signal;HPM_P1;HPM_P2
2022/12/16 00:02:20;;;;;;;;;;;18.30;62.30;;;;;;4460606;32;20108;-73
2022/12/16 00:04:46;;;;;;;;;;;18.20;61.40;;;;;;4460250;32;20191;-73
2022/12/16 00:07:12;;;;;;;;;;;18.20;61.40;;;;;;4460949;32;19981;-73
2022/12/16 00:09:37;;;;;;;;;;;18.20;61.40;;;;;;4445019;32;20018;-73
2022/12/16 00:12:03;;;;;;;;;;;18.20;61.40;;;;;;4459420;32;20277;-74
2022/12/16 00:14:32;;;;;;;;;;;18.20;61.40;;;;;;4458417;32;20055;-73
2022/12/16 00:16:57;;;;;;;;;;;18.20;61.40;;;;;;4460185;32;19991;-73
2022/12/16 00:19:24;;;;;;;;;;;18.10;61.40;;;;;;4459794;32;20403;-73
2022/12/16 00:21:50;;;;;;;;;;;18.10;61.40;;;;;;4460349;32;19977;-73
2022/12/16 00:24:16;;;;;;;;;;;18.10;61.40;;;;;;4460600;32;20073;-74
2022/12/16 00:26:42;;;;;;;;;;;18.10;61.40;;;;;;4458370;32;19978;-73
2022/12/16 00:29:09;;;;;;;;;;;18.10;61.40;;;;;;4445428;32;20450;-74
2022/12/16 00:31:35;;;;;;;;;;;18.10;61.40;;;;;;4458288;32;20049;-74
2022/12/16 00:34:01;;;;;;;;;;;18.00;61.30;;;;;;4460036;32;19982;-73
2022/12/16 00:36:27;;;;;;;;;;;18.00;61.30;;;;;;4459400;32;20041;-74
2022/12/16 00:38:53;;;;;;;;;;;18.00;61.40;;;;;;4458390;32;20407;-73
2022/12/16 00:41:19;;;;;;;;;;;18.00;61.30;;;;;;4460550;32;20473;-73
2022/12/16 00:43:44;;;;;;;;;;;18.00;61.40;;;;;;4458814;32;20071;-73
2022/12/16 00:46:10;;;;;;;;;;;18.00;61.40;;;;;;4458900;32;20075;-73
2022/12/16 00:48:36;;;;;;;;;;;18.00;61.40;;;;;;4457927;32;20024;-73
2022/12/16 00:51:02;;;;;;;;;;;18.00;62.30;;;;;;4459658;32;19978;-73
2022/12/16 00:53:28;;;;;;;;;;;18.00;61.40;;;;;;4459003;32;20172;-74
2022/12/16 00:56:00;;;;;;;;;;;17.90;61.40;;;;;;4455741;32;20391;-73
2022/12/16 00:58:26;;;;;;;;;;;17.90;61.40;;;;;;4455537;32;20175;-73
2022/12/16 01:00:52;;;;;;;;;;;17.90;61.40;;;;;;4461610;32;19963;-73
2022/12/16 01:03:17;;;;;;;;;;;17.90;61.40;;;;;;4461737;32;20029;-73
2022/12/16 01:05:43;;;;;;;;;;;17.80;61.40;;;;;;4461756;32;19962;-73
2022/12/16 01:08:09;;;;;;;;;;;17.80;61.40;;;;;;4461282;32;21535;-73
2022/12/16 01:10:34;;;;;;;;;;;17.80;61.40;;;;;;4460505;32;19982;-74
2022/12/16 01:13:01;;;;;;;;;;;17.80;61.40;;;;;;4460722;32;19990;-73
2022/12/16 01:15:26;;;;;;;;;;;17.80;61.30;;;;;;4458832;32;20024;-73
2022/12/16 01:17:56;;;;;;;;;;;17.80;61.40;;;;;;4457522;32;20498;-73
2022/12/16 01:20:23;;;;;;;;;;;17.80;61.40;;;;;;4450500;32;20392;-73
2022/12/16 01:22:50;;;;;;;;;;;17.80;61.40;;;;;;4458781;32;20101;-73
2022/12/16 01:25:16;;;;;;;;;;;17.70;61.30;;;;;;4457832;32;20395;-73
2022/12/16 01:27:42;;;;;;;;;;;17.70;61.30;;;;;;4459409;32;19987;-73
2022/12/16 01:30:09;;;;;;;;;;;17.70;61.40;;;;;;4457165;32;20441;-73
2022/12/16 01:32:35;;;;;;;;;;;17.70;61.40;;;;;;4459394;32;19982;-73
2022/12/16 01:35:01;;;;;;;;;;;17.70;61.40;;;;;;4457229;32;19986;-74
2022/12/16 01:37:27;;;;;;;;;;;17.70;61.40;;;;;;4459280;32;20143;-73
2022/12/16 01:39:52;;;;;;;;;;;17.70;61.40;;;;;;4458052;32;20021;-74
2022/12/16 01:42:20;;;;;;;;;;;17.70;61.40;;;;;;4445953;32;20010;-73
2022/12/16 01:44:47;;;;;;;;;;;17.70;61.40;;;;;;4459565;32;20448;-73
2022/12/16 01:47:18;;;;;;;;;;;17.60;61.30;;;;;;4461071;32;19982;-73
2022/12/16 01:49:46;;;;;;;;;;;17.60;61.30;;;;;;4460988;32;19989;-73
2022/12/16 01:52:16;;;;;;;;;;;17.60;61.40;;;;;;4460939;32;20108;-74
2022/12/16 01:54:43;;;;;;;;;;;17.60;61.40;;;;;;4461310;32;20418;-73
2022/12/16 01:57:14;;;;;;;;;;;17.60;61.30;;;;;;4460859;32;20036;-73
2022/12/16 01:59:42;;;;;;;;;;;17.60;61.40;;;;;;4461324;32;19989;-74
2022/12/16 02:02:08;;;;;;;;;;;17.60;61.30;;;;;;4460778;32;19990;-73
2022/12/16 02:04:34;;;;;;;;;;;17.60;61.40;;;;;;4461086;32;20036;-73
2022/12/16 02:07:00;;;;;;;;;;;17.50;61.30;;;;;;4460800;32;19974;-74
2022/12/16 02:09:26;;;;;;;;;;;17.50;61.30;;;;;;4460827;32;19990;-74
2022/12/16 02:11:57;;;;;;;;;;;17.50;61.30;;;;;;4461040;32;20048;-73
2022/12/16 02:14:35;;;;;;;;;;;17.50;61.30;;;;;;4460793;32;20016;-74
2022/12/16 02:17:08;;;;;;;;;;;17.50;61.40;;;;;;4460914;32;20002;-73
2022/12/16 02:19:48;;;;;;;;;;;17.50;61.40;;;;;;4460946;32;19988;-73
2022/12/16 02:22:26;;;;;;;;;;;17.50;61.40;;;;;;4460958;32;20020;-74
2022/12/16 02:25:07;;;;;;;;;;;17.50;61.40;;;;;;4460955;32;19982;-74
2022/12/16 02:27:39;;;;;;;;;;;17.40;61.30;;;;;;4460703;32;20327;-74
2022/12/16 02:30:23;;;;;;;;;;;17.40;61.30;;;;;;4460913;32;19990;-74
2022/12/16 02:32:52;;;;;;;;;;;17.40;61.30;;;;;;4460549;32;19986;-74
2022/12/16 02:35:30;;;;;;;;;;;17.40;61.30;;;;;;4460805;32;19997;-74
2022/12/16 02:37:59;;;;;;;;;;;17.40;61.30;;;;;;4460515;32;20292;-74
2022/12/16 02:40:34;;;;;;;;;;;17.40;61.30;;;;;;4460434;32;20569;-74
2022/12/16 02:43:05;;;;;;;;;;;17.40;61.30;;;;;;4460513;32;19986;-74
2022/12/16 02:45:33;;;;;;;;;;;17.40;61.30;;;;;;4460483;32;20339;-72
2022/12/16 02:47:58;;;;;;;;;;;17.40;61.30;;;;;;4460917;32;20440;-72
2022/12/16 02:50:31;;;;;;;;;;;17.40;61.30;;;;;;4463802;32;19974;-71
2022/12/16 02:52:58;;;;;;;;;;;17.40;61.30;;;;;;4462554;32;20010;-72
2022/12/16 02:55:28;;;;;;;;;;;17.40;61.30;;;;;;4461137;32;20316;-72
2022/12/16 02:57:58;;;;;;;;;;;17.40;61.20;;;;;;4460985;32;20032;-72
2022/12/16 03:00:25;;;;;;;;;;;17.40;61.20;;;;;;4459648;32;20132;-72
2022/12/16 03:03:01;;;;;;;;;;;17.40;61.20;;;;;;4461611;32;19966;-72
2022/12/16 03:05:30;;;;;;;;;;;17.40;61.10;;;;;;4452432;32;20036;-74
2022/12/16 03:07:57;;;;;;;;;;;17.40;61.40;;;;;;4456787;32;20394;-74
2022/12/16 03:10:26;;;;;;;;;;;17.40;61.20;;;;;;4459554;32;19990;-73
2022/12/16 03:12:52;;;;;;;;;;;17.40;61.20;;;;;;4461224;32;20055;-74
2022/12/16 03:15:20;;;;;;;;;;;17.30;61.10;;;;;;4460505;32;20072;-74
2022/12/16 03:17:47;;;;;;;;;;;17.30;61.10;;;;;;4461883;32;20479;-74
2022/12/16 03:20:33;;;;;;;;;;;17.30;61.20;;;;;;4447970;32;19974;-74
2022/12/16 03:23:02;;;;;;;;;;;17.30;61.20;;;;;;4455480;32;20510;-74
2022/12/16 03:25:28;;;;;;;;;;;17.20;61.20;;;;;;4452183;32;20064;-74
2022/12/16 03:28:06;;;;;;;;;;;17.20;61.20;;;;;;4449976;32;20022;-74
2022/12/16 03:30:35;;;;;;;;;;;17.20;61.20;;;;;;4452142;32;20327;-74
2022/12/16 03:33:10;;;;;;;;;;;17.20;61.20;;;;;;4449804;32;20403;-74
2022/12/16 03:35:36;;;;;;;;;;;17.20;61.20;;;;;;4451942;32;19986;-74
2022/12/16 03:38:04;;;;;;;;;;;17.20;61.30;;;;;;4449725;32;20331;-74
2022/12/16 03:40:30;;;;;;;;;;;17.20;61.40;;;;;;4450672;32;20012;-74
2022/12/16 03:42:56;;;;;;;;;;;17.20;61.30;;;;;;4448719;32;19985;-74
2022/12/16 03:45:24;;;;;;;;;;;17.20;61.30;;;;;;4454650;32;20077;-74
2022/12/16 03:47:51;;;;;;;;;;;17.20;61.20;;;;;;4451872;32;20331;-74
2022/12/16 03:50:18;;;;;;;;;;;17.20;61.10;;;;;;4449475;32;20096;-74
2022/12/16 03:52:44;;;;;;;;;;;17.20;61.00;;;;;;4458170;32;20392;-74
2022/12/16 03:55:09;;;;;;;;;;;17.20;61.00;;;;;;4462645;32;19997;-74
2022/12/16 03:57:35;;;;;;;;;;;17.30;61.00;;;;;;4462817;32;20025;-73
2022/12/16 04:00:01;;;;;;;;;;;17.30;60.90;;;;;;4447712;32;19966;-73
2022/12/16 04:02:27;;;;;;;;;;;17.30;60.90;;;;;;4462674;32;19999;-74
2022/12/16 04:04:53;;;;;;;;;;;17.30;60.80;;;;;;4462768;32;19983;-74
2022/12/16 04:07:23;;;;;;;;;;;17.30;60.80;;;;;;4448487;32;20429;-74
2022/12/16 04:09:49;;;;;;;;;;;17.30;60.70;;;;;;4462366;32;20425;-74
2022/12/16 04:26:00;;;;;;;;;;;17.40;60.40;;;;;;4462378;32;20376;-73
2022/12/16 04:28:26;;;;;;;;;;;17.40;60.30;;;;;;4462544;32;20008;-74
2022/12/16 04:30:52;;;;;;;;;;;17.40;60.20;;;;;;4462150;32;19966;-74
